sensor_id;sensor_type;location;lat;lon;timestamp;pressure;altitude;pressure_sealevel;temperature;humidity
55474;BME280;65220;52.214;0.116;2024-01-15T00:00:36;100838.06;;;12.79;27.15
55474;BME280;65220;52.214;0.116;2024-01-15T00:03:02;100839.51;;;14.07;26.93
55474;BME280;65220;52.214;0.116;2024-01-15T00:05:27;100839.91;;;13.52;27.14
55474;BME280;65220;52.214;0.116;2024-01-15T00:07:52;100834.08;;;13.65;27.01
55474;BME280;65220;52.214;0.116;2024-01-15T00:10:17;100838.63;;;13.61;27.11
55474;BME280;65220;52.214;0.116;2024-01-15T00:12:42;100837.10;;;13.37;27.18
55474;BME280;65220;52.214;0.116;2024-01-15T00:15:09;100838.20;;;13.67;27.10
55474;BME280;65220;52.214;0.116;2024-01-15T00:17:33;100832.00;;;13.58;27.13
55474;BME280;65220;52.214;0.116;2024-01-15T00:19:58;100828.15;;;14.19;26.87
55474;BME280;65220;52.214;0.116;2024-01-15T00:22:25;100826.99;;;13.54;27.09
55474;BME280;65220;52.214;0.116;2024-01-15T00:24:48;100822.96;;;13.12;27.26
55474;BME280;65220;52.214;0.116;2024-01-15T00:27:13;100822.83;;;13.09;27.18
55474;BME280;65220;52.214;0.116;2024-01-15T00:29:39;100821.24;;;13.66;26.99
55474;BME280;65220;52.214;0.116;2024-01-15T00:32:04;100815.55;;;13.82;26.89
55474;BME280;65220;52.214;0.116;2024-01-15T00:34:29;100815.40;;;12.85;27.37
55474;BME280;65220;52.214;0.116;2024-01-15T00:36:54;100813.57;;;13.13;27.20
55474;BME280;65220;52.214;0.116;2024-01-15T00:39:19;100810.08;;;13.10;27.08
55474;BME280;65220;52.214;0.116;2024-01-15T00:41:44;100807.58;;;13.50;27.15
55474;BME280;65220;52.214;0.116;2024-01-15T00:44:10;100804.48;;;13.71;26.76
55474;BME280;65220;52.214;0.116;2024-01-15T00:46:43;100802.94;;;13.37;26.97
55474;BME280;65220;52.214;0.116;2024-01-15T00:49:00;100801.83;;;13.71;26.83
55474;BME280;65220;52.214;0.116;2024-01-15T00:51:25;100794.96;;;14.12;26.58
55474;BME280;65220;52.214;0.116;2024-01-15T00:53:50;100790.56;;;14.07;26.60
55474;BME280;65220;52.214;0.116;2024-01-15T00:56:15;100790.10;;;13.96;26.66
55474;BME280;65220;52.214;0.116;2024-01-15T00:58:41;100790.63;;;14.04;26.62
55474;BME280;65220;52.214;0.116;2024-01-15T01:01:06;100791.78;;;14.50;26.32
55474;BME280;65220;52.214;0.116;2024-01-15T01:03:31;100791.07;;;14.57;26.29
55474;BME280;65220;52.214;0.116;2024-01-15T01:05:57;100792.07;;;14.18;26.49
55474;BME280;65220;52.214;0.116;2024-01-15T01:08:21;100787.83;;;14.64;26.25
55474;BME280;65220;52.214;0.116;2024-01-15T01:10:46;100785.36;;;14.58;26.19
55474;BME280;65220;52.214;0.116;2024-01-15T01:13:12;100786.79;;;15.13;25.90
55474;BME280;65220;52.214;0.116;2024-01-15T01:15:37;100786.44;;;15.06;26.04
55474;BME280;65220;52.214;0.116;2024-01-15T01:18:02;100779.24;;;14.94;26.12
55474;BME280;65220;52.214;0.116;2024-01-15T01:20:27;100779.00;;;15.20;25.88
55474;BME280;65220;52.214;0.116;2024-01-15T01:22:52;100776.49;;;15.60;25.81
55474;BME280;65220;52.214;0.116;2024-01-15T01:25:17;100774.33;;;15.65;25.86
55474;BME280;65220;52.214;0.116;2024-01-15T01:27:43;100771.53;;;15.17;25.99
55474;BME280;65220;52.214;0.116;2024-01-15T01:30:09;100770.09;;;15.58;25.88
55474;BME280;65220;52.214;0.116;2024-01-15T01:32:33;100771.72;;;15.20;26.01
55474;BME280;65220;52.214;0.116;2024-01-15T01:34:58;100768.80;;;15.00;26.23
55474;BME280;65220;52.214;0.116;2024-01-15T01:37:23;100767.99;;;15.32;25.93
55474;BME280;65220;52.214;0.116;2024-01-15T01:39:49;100766.11;;;15.41;26.02
55474;BME280;65220;52.214;0.116;2024-01-15T01:42:14;100764.17;;;15.17;26.04
55474;BME280;65220;52.214;0.116;2024-01-15T01:44:39;100764.31;;;15.06;26.13
55474;BME280;65220;52.214;0.116;2024-01-15T01:47:05;100763.38;;;14.88;26.06
55474;BME280;65220;52.214;0.116;2024-01-15T01:49:30;100764.28;;;16.01;25.85
55474;BME280;65220;52.214;0.116;2024-01-15T01:51:57;100763.04;;;15.67;25.86
55474;BME280;65220;52.214;0.116;2024-01-15T01:54:20;100766.08;;;15.75;25.80
55474;BME280;65220;52.214;0.116;2024-01-15T01:56:46;100765.34;;;15.25;25.94
55474;BME280;65220;52.214;0.116;2024-01-15T01:59:11;100766.52;;;15.37;25.86
55474;BME280;65220;52.214;0.116;2024-01-15T02:01:35;100765.03;;;15.52;25.79
55474;BME280;65220;52.214;0.116;2024-01-15T02:04:01;100768.01;;;15.73;25.73
55474;BME280;65220;52.214;0.116;2024-01-15T02:06:25;100767.21;;;15.75;25.75
55474;BME280;65220;52.214;0.116;2024-01-15T02:08:51;100760.63;;;14.97;25.95
55474;BME280;65220;52.214;0.116;2024-01-15T02:11:16;100766.01;;;15.67;25.50
55474;BME280;65220;52.214;0.116;2024-01-15T02:13:41;100767.25;;;16.23;25.51
55474;BME280;65220;52.214;0.116;2024-01-15T02:16:06;100768.68;;;15.73;25.56
55474;BME280;65220;52.214;0.116;2024-01-15T02:18:40;100766.62;;;15.70;25.56
55474;BME280;65220;52.214;0.116;2024-01-15T02:20:57;100768.34;;;15.59;25.64
55474;BME280;65220;52.214;0.116;2024-01-15T02:23:22;100768.21;;;16.09;25.39
55474;BME280;65220;52.214;0.116;2024-01-15T02:25:47;100768.37;;;15.54;25.60
55474;BME280;65220;52.214;0.116;2024-01-15T02:28:14;100767.77;;;16.24;25.32
55474;BME280;65220;52.214;0.116;2024-01-15T02:30:38;100763.31;;;16.06;25.52
55474;BME280;65220;52.214;0.116;2024-01-15T02:33:03;100766.49;;;16.37;25.38
55474;BME280;65220;52.214;0.116;2024-01-15T02:35:28;100766.57;;;16.54;25.29
55474;BME280;65220;52.214;0.116;2024-01-15T02:37:53;100766.16;;;16.83;25.14
55474;BME280;65220;52.214;0.116;2024-01-15T02:40:18;100763.38;;;16.54;25.28
55474;BME280;65220;52.214;0.116;2024-01-15T02:42:43;100765.28;;;16.26;25.27
55474;BME280;65220;52.214;0.116;2024-01-15T02:45:09;100765.98;;;16.64;25.24
55474;BME280;65220;52.214;0.116;2024-01-15T02:47:33;100760.10;;;15.82;25.42
55474;BME280;65220;52.214;0.116;2024-01-15T02:49:59;100763.62;;;16.55;25.22
55474;BME280;65220;52.214;0.116;2024-01-15T02:52:24;100757.83;;;16.74;25.05
55474;BME280;65220;52.214;0.116;2024-01-15T02:54:49;100752.50;;;16.25;25.28
55474;BME280;65220;52.214;0.116;2024-01-15T02:57:14;100752.27;;;16.33;25.13
55474;BME280;65220;52.214;0.116;2024-01-15T02:59:39;100750.17;;;16.50;24.90
55474;BME280;65220;52.214;0.116;2024-01-15T03:02:04;100756.16;;;16.20;25.18
55474;BME280;65220;52.214;0.116;2024-01-15T03:04:30;100759.15;;;16.06;25.26
55474;BME280;65220;52.214;0.116;2024-01-15T03:06:55;100757.38;;;16.23;25.36
55474;BME280;65220;52.214;0.116;2024-01-15T03:09:20;100750.64;;;16.49;25.21
55474;BME280;65220;52.214;0.116;2024-01-15T03:11:45;100749.86;;;16.56;24.94
55474;BME280;65220;52.214;0.116;2024-01-15T03:14:10;100751.61;;;16.20;24.89
55474;BME280;65220;52.214;0.116;2024-01-15T03:16:35;100747.78;;;15.92;25.23
55474;BME280;65220;52.214;0.116;2024-01-15T03:19:01;100744.94;;;16.68;24.96
55474;BME280;65220;52.214;0.116;2024-01-15T03:21:26;100744.81;;;15.95;25.12
55474;BME280;65220;52.214;0.116;2024-01-15T03:23:51;100747.37;;;16.83;24.81
55474;BME280;65220;52.214;0.116;2024-01-15T03:26:16;100744.19;;;16.59;24.92
55474;BME280;65220;52.214;0.116;2024-01-15T03:28:41;100747.57;;;16.41;24.85
55474;BME280;65220;52.214;0.116;2024-01-15T03:31:07;100751.21;;;16.24;24.93
55474;BME280;65220;52.214;0.116;2024-01-15T03:33:32;100751.74;;;16.01;24.97
55474;BME280;65220;52.214;0.116;2024-01-15T03:35:59;100754.35;;;16.34;24.87
55474;BME280;65220;52.214;0.116;2024-01-15T03:38:23;100753.73;;;16.92;24.69
55474;BME280;65220;52.214;0.116;2024-01-15T03:40:47;100751.47;;;16.20;24.78
55474;BME280;65220;52.214;0.116;2024-01-15T03:43:12;100752.33;;;15.68;25.03
55474;BME280;65220;52.214;0.116;2024-01-15T03:45:37;100749.63;;;16.52;24.65
55474;BME280;65220;52.214;0.116;2024-01-15T03:48:03;100746.83;;;16.54;24.71
55474;BME280;65220;52.214;0.116;2024-01-15T03:50:28;100749.30;;;15.30;25.03
55474;BME280;65220;52.214;0.116;2024-01-15T03:52:53;100747.34;;;16.31;24.75
55474;BME280;65220;52.214;0.116;2024-01-15T03:55:18;100748.49;;;16.75;24.60
55474;BME280;65220;52.214;0.116;2024-01-15T03:57:43;100748.89;;;16.87;24.52
55474;BME280;65220;52.214;0.116;2024-01-15T04:00:10;100749.62;;;16.33;24.62
55474;BME280;65220;52.214;0.116;2024-01-15T04:02:35;100745.55;;;16.97;24.46
55474;BME280;65220;52.214;0.116;2024-01-15T04:05:00;100744.04;;;16.92;24.71
55474;BME280;65220;52.214;0.116;2024-01-15T04:07:25;100744.03;;;16.74;24.51
55474;BME280;65220;52.214;0.116;2024-01-15T04:09:50;100740.54;;;16.49;24.40
55474;BME280;65220;52.214;0.116;2024-01-15T04:12:15;100743.69;;;17.08;24.42
55474;BME280;65220;52.214;0.116;2024-01-15T04:14:40;100741.36;;;16.94;24.56
55474;BME280;65220;52.214;0.116;2024-01-15T04:17:06;100739.86;;;16.60;24.44
55474;BME280;65220;52.214;0.116;2024-01-15T04:19:31;100740.38;;;16.89;24.46
55474;BME280;65220;52.214;0.116;2024-01-15T04:21:56;100734.49;;;17.02;24.55
55474;BME280;65220;52.214;0.116;2024-01-15T04:24:21;100735.21;;;16.96;24.36
55474;BME280;65220;52.214;0.116;2024-01-15T04:26:46;100742.66;;;17.02;24.35
55474;BME280;65220;52.214;0.116;2024-01-15T04:29:11;100743.51;;;17.05;24.22
55474;BME280;65220;52.214;0.116;2024-01-15T04:31:37;100750.49;;;16.80;24.34
55474;BME280;65220;52.214;0.116;2024-01-15T04:34:02;100748.80;;;16.99;24.38
55474;BME280;65220;52.214;0.116;2024-01-15T04:36:27;100748.56;;;17.13;24.24
55474;BME280;65220;52.214;0.116;2024-01-15T04:38:52;100747.33;;;16.78;24.41
55474;BME280;65220;52.214;0.116;2024-01-15T04:41:17;100748.93;;;16.56;24.47
55474;BME280;65220;52.214;0.116;2024-01-15T04:43:42;100747.44;;;16.64;24.39
55474;BME280;65220;52.214;0.116;2024-01-15T04:46:08;100745.62;;;16.92;24.34
55474;BME280;65220;52.214;0.116;2024-01-15T04:48:33;100742.79;;;16.68;24.45
55474;BME280;65220;52.214;0.116;2024-01-15T04:50:58;100744.40;;;16.78;24.36
55474;BME280;65220;52.214;0.116;2024-01-15T04:53:23;100736.96;;;16.96;24.23
55474;BME280;65220;52.214;0.116;2024-01-15T04:55:48;100738.87;;;16.66;24.30
55474;BME280;65220;52.214;0.116;2024-01-15T04:58:13;100736.18;;;16.42;24.46
55474;BME280;65220;52.214;0.116;2024-01-15T05:00:38;100738.03;;;16.71;24.32
55474;BME280;65220;52.214;0.116;2024-01-15T05:03:04;100732.39;;;16.87;24.33
55474;BME280;65220;52.214;0.116;2024-01-15T05:05:29;100732.87;;;16.92;24.16
55474;BME280;65220;52.214;0.116;2024-01-15T05:07:54;100731.84;;;16.45;24.53
55474;BME280;65220;52.214;0.116;2024-01-15T05:10:19;100731.56;;;16.15;24.45
55474;BME280;65220;52.214;0.116;2024-01-15T05:12:44;100729.92;;;16.31;24.34
55474;BME280;65220;52.214;0.116;2024-01-15T05:15:09;100734.28;;;16.49;24.26
55474;BME280;65220;52.214;0.116;2024-01-15T05:17:35;100732.36;;;16.39;24.18
55474;BME280;65220;52.214;0.116;2024-01-15T05:20:00;100741.23;;;16.64;24.15
55474;BME280;65220;52.214;0.116;2024-01-15T05:22:25;100735.91;;;16.41;24.26
55474;BME280;65220;52.214;0.116;2024-01-15T05:24:50;100736.21;;;16.86;24.02
55474;BME280;65220;52.214;0.116;2024-01-15T05:27:15;100737.28;;;16.26;24.25
55474;BME280;65220;52.214;0.116;2024-01-15T05:29:40;100741.20;;;16.35;24.31
55474;BME280;65220;52.214;0.116;2024-01-15T05:32:06;100734.74;;;16.47;24.18
55474;BME280;65220;52.214;0.116;2024-01-15T05:34:31;100732.73;;;15.99;24.30
55474;BME280;65220;52.214;0.116;2024-01-15T05:36:56;100731.77;;;16.28;24.10
55474;BME280;65220;52.214;0.116;2024-01-15T05:39:21;100733.15;;;16.24;24.08
55474;BME280;65220;52.214;0.116;2024-01-15T05:41:47;100728.39;;;16.15;24.17
55474;BME280;65220;52.214;0.116;2024-01-15T05:44:11;100727.59;;;16.04;24.25
55474;BME280;65220;52.214;0.116;2024-01-15T05:46:37;100733.52;;;15.92;24.16
55474;BME280;65220;52.214;0.116;2024-01-15T05:49:02;100733.71;;;16.41;23.94
55474;BME280;65220;52.214;0.116;2024-01-15T05:51:27;100737.24;;;15.93;24.13
55474;BME280;65220;52.214;0.116;2024-01-15T05:53:52;100739.27;;;15.90;24.13
55474;BME280;65220;52.214;0.116;2024-01-15T05:56:17;100732.65;;;15.79;24.34
55474;BME280;65220;52.214;0.116;2024-01-15T05:58:42;100733.14;;;15.98;24.15
55474;BME280;65220;52.214;0.116;2024-01-15T06:01:07;100728.77;;;15.75;24.32
55474;BME280;65220;52.214;0.116;2024-01-15T06:03:33;100728.03;;;16.15;24.06
55474;BME280;65220;52.214;0.116;2024-01-15T06:05:58;100728.25;;;15.78;24.14
55474;BME280;65220;52.214;0.116;2024-01-15T06:08:23;100725.83;;;16.45;23.90
55474;BME280;65220;52.214;0.116;2024-01-15T06:10:48;100730.98;;;16.17;24.04
55474;BME280;65220;52.214;0.116;2024-01-15T06:13:14;100728.46;;;15.77;24.09
55474;BME280;65220;52.214;0.116;2024-01-15T06:15:38;100723.42;;;15.60;24.29
55474;BME280;65220;52.214;0.116;2024-01-15T06:18:04;100726.46;;;15.73;24.12
55474;BME280;65220;52.214;0.116;2024-01-15T06:20:29;100731.12;;;15.79;23.95
55474;BME280;65220;52.214;0.116;2024-01-15T06:22:54;100735.76;;;15.66;24.01
55474;BME280;65220;52.214;0.116;2024-01-15T06:25:19;100728.95;;;15.59;24.09
55474;BME280;65220;52.214;0.116;2024-01-15T06:27:45;100725.15;;;15.01;24.26
55474;BME280;65220;52.214;0.116;2024-01-15T06:30:11;100726.14;;;15.75;23.94
55474;BME280;65220;52.214;0.116;2024-01-15T06:32:35;100721.38;;;15.24;24.22
55474;BME280;65220;52.214;0.116;2024-01-15T06:35:00;100719.92;;;15.30;24.10
55474;BME280;65220;52.214;0.116;2024-01-15T06:37:25;100729.35;;;14.86;24.48
55474;BME280;65220;52.214;0.116;2024-01-15T06:39:50;100735.74;;;15.38;24.26
55474;BME280;65220;52.214;0.116;2024-01-15T06:42:15;100731.51;;;15.78;24.16
55474;BME280;65220;52.214;0.116;2024-01-15T06:44:41;100730.39;;;15.38;24.08
55474;BME280;65220;52.214;0.116;2024-01-15T06:47:06;100728.04;;;15.00;24.23
55474;BME280;65220;52.214;0.116;2024-01-15T06:49:31;100732.55;;;15.42;24.10
55474;BME280;65220;52.214;0.116;2024-01-15T06:51:56;100729.56;;;14.85;24.37
55474;BME280;65220;52.214;0.116;2024-01-15T06:54:21;100727.85;;;15.35;24.11
55474;BME280;65220;52.214;0.116;2024-01-15T06:56:46;100726.86;;;14.31;24.23
55474;BME280;65220;52.214;0.116;2024-01-15T06:59:12;100730.43;;;15.09;24.07
55474;BME280;65220;52.214;0.116;2024-01-15T07:01:37;100733.63;;;14.44;24.37
55474;BME280;65220;52.214;0.116;2024-01-15T07:04:02;100730.27;;;14.65;24.37
55474;BME280;65220;52.214;0.116;2024-01-15T07:06:27;100729.64;;;15.52;23.94
55474;BME280;65220;52.214;0.116;2024-01-15T07:08:52;100734.25;;;14.73;24.21
55474;BME280;65220;52.214;0.116;2024-01-15T07:11:18;100736.08;;;14.52;24.30
55474;BME280;65220;52.214;0.116;2024-01-15T07:13:43;100739.27;;;14.84;24.09
55474;BME280;65220;52.214;0.116;2024-01-15T07:16:09;100741.55;;;15.40;23.98
55474;BME280;65220;52.214;0.116;2024-01-15T07:18:34;100741.00;;;14.57;24.37
55474;BME280;65220;52.214;0.116;2024-01-15T07:20:59;100735.46;;;15.03;24.16
55474;BME280;65220;52.214;0.116;2024-01-15T07:23:24;100735.70;;;14.72;24.34
55474;BME280;65220;52.214;0.116;2024-01-15T07:25:49;100743.41;;;14.51;24.34
55474;BME280;65220;52.214;0.116;2024-01-15T07:28:15;100740.75;;;14.57;24.20
55474;BME280;65220;52.214;0.116;2024-01-15T07:30:40;100741.51;;;14.84;24.16
55474;BME280;65220;52.214;0.116;2024-01-15T07:33:10;100744.29;;;14.29;24.47
55474;BME280;65220;52.214;0.116;2024-01-15T07:35:30;100742.94;;;14.83;24.31
55474;BME280;65220;52.214;0.116;2024-01-15T07:37:55;100744.80;;;14.77;24.25
55474;BME280;65220;52.214;0.116;2024-01-15T07:40:21;100748.85;;;14.39;24.22
55474;BME280;65220;52.214;0.116;2024-01-15T07:42:46;100754.20;;;14.10;24.42
55474;BME280;65220;52.214;0.116;2024-01-15T07:45:11;100755.29;;;14.94;24.08
55474;BME280;65220;52.214;0.116;2024-01-15T07:47:36;100753.78;;;14.09;24.40
55474;BME280;65220;52.214;0.116;2024-01-15T07:50:02;100756.75;;;14.60;24.39
55474;BME280;65220;52.214;0.116;2024-01-15T07:52:26;100764.00;;;14.75;24.13
55474;BME280;65220;52.214;0.116;2024-01-15T07:54:52;100764.79;;;14.51;24.12
55474;BME280;65220;52.214;0.116;2024-01-15T07:57:17;100763.52;;;14.61;24.08
55474;BME280;65220;52.214;0.116;2024-01-15T07:59:42;100763.51;;;14.91;24.00
55474;BME280;65220;52.214;0.116;2024-01-15T08:02:07;100764.00;;;14.59;24.09
55474;BME280;65220;52.214;0.116;2024-01-15T08:04:32;100763.13;;;14.36;24.22
55474;BME280;65220;52.214;0.116;2024-01-15T08:06:58;100761.09;;;15.08;23.91
55474;BME280;65220;52.214;0.116;2024-01-15T08:09:23;100763.47;;;14.60;23.97
55474;BME280;65220;52.214;0.116;2024-01-15T08:11:48;100765.19;;;14.41;24.04
55474;BME280;65220;52.214;0.116;2024-01-15T08:14:13;100769.45;;;14.57;24.10
55474;BME280;65220;52.214;0.116;2024-01-15T08:16:39;100762.74;;;14.32;24.23
55474;BME280;65220;52.214;0.116;2024-01-15T08:19:03;100768.12;;;14.60;23.93
55474;BME280;65220;52.214;0.116;2024-01-15T08:21:29;100770.55;;;14.40;24.16
55474;BME280;65220;52.214;0.116;2024-01-15T08:23:54;100776.17;;;13.88;24.25
55474;BME280;65220;52.214;0.116;2024-01-15T08:26:19;100783.24;;;14.80;24.02
55474;BME280;65220;52.214;0.116;2024-01-15T08:28:44;100790.04;;;15.04;23.89
55474;BME280;65220;52.214;0.116;2024-01-15T08:31:09;100789.93;;;14.74;24.13
55474;BME280;65220;52.214;0.116;2024-01-15T08:33:35;100795.37;;;14.60;24.40
55474;BME280;65220;52.214;0.116;2024-01-15T08:36:00;100800.06;;;14.90;24.21
55474;BME280;65220;52.214;0.116;2024-01-15T08:38:25;100802.77;;;15.19;24.19
55474;BME280;65220;52.214;0.116;2024-01-15T08:40:50;100804.33;;;14.83;24.25
55474;BME280;65220;52.214;0.116;2024-01-15T08:43:15;100808.95;;;15.00;24.24
55474;BME280;65220;52.214;0.116;2024-01-15T08:45:41;100815.79;;;14.80;24.32
55474;BME280;65220;52.214;0.116;2024-01-15T08:48:06;100814.41;;;14.61;24.51
55474;BME280;65220;52.214;0.116;2024-01-15T08:50:33;100809.52;;;14.76;24.27
55474;BME280;65220;52.214;0.116;2024-01-15T08:52:56;100816.12;;;14.26;24.55
55474;BME280;65220;52.214;0.116;2024-01-15T08:55:21;100815.24;;;14.53;24.57
55474;BME280;65220;52.214;0.116;2024-01-15T08:57:46;100809.26;;;14.87;24.38
55474;BME280;65220;52.214;0.116;2024-01-15T09:00:13;100813.37;;;14.05;24.66
55474;BME280;65220;52.214;0.116;2024-01-15T09:02:37;100815.71;;;15.07;24.40
55474;BME280;65220;52.214;0.116;2024-01-15T09:05:02;100822.47;;;14.60;24.88
55474;BME280;65220;52.214;0.116;2024-01-15T09:07:27;100823.24;;;14.98;24.63
55474;BME280;65220;52.214;0.116;2024-01-15T09:09:53;100830.38;;;14.81;24.66
55474;BME280;65220;52.214;0.116;2024-01-15T09:12:17;100831.24;;;15.60;24.73
55474;BME280;65220;52.214;0.116;2024-01-15T09:14:43;100828.80;;;14.89;24.72
55474;BME280;65220;52.214;0.116;2024-01-15T09:17:08;100831.51;;;15.48;24.68
55474;BME280;65220;52.214;0.116;2024-01-15T09:19:34;100834.32;;;14.55;24.91
55474;BME280;65220;52.214;0.116;2024-01-15T09:21:58;100839.77;;;14.79;24.96
55474;BME280;65220;52.214;0.116;2024-01-15T09:24:24;100838.88;;;14.81;24.95
55474;BME280;65220;52.214;0.116;2024-01-15T09:26:49;100837.73;;;13.98;25.29
55474;BME280;65220;52.214;0.116;2024-01-15T09:29:14;100841.54;;;14.19;25.33
55474;BME280;65220;52.214;0.116;2024-01-15T09:31:39;100845.73;;;14.28;25.31
55474;BME280;65220;52.214;0.116;2024-01-15T09:34:04;100849.83;;;14.04;25.29
55474;BME280;65220;52.214;0.116;2024-01-15T09:36:29;100853.30;;;14.58;25.05
55474;BME280;65220;52.214;0.116;2024-01-15T09:38:54;100854.63;;;14.31;25.21
55474;BME280;65220;52.214;0.116;2024-01-15T09:41:20;100861.82;;;13.61;25.50
55474;BME280;65220;52.214;0.116;2024-01-15T09:43:45;100863.20;;;14.64;25.05
55474;BME280;65220;52.214;0.116;2024-01-15T09:46:10;100865.33;;;14.04;25.19
55474;BME280;65220;52.214;0.116;2024-01-15T09:48:35;100867.45;;;13.95;25.16
55474;BME280;65220;52.214;0.116;2024-01-15T09:51:02;100869.56;;;14.37;25.02
55474;BME280;65220;52.214;0.116;2024-01-15T09:53:26;100875.62;;;14.45;25.00
55474;BME280;65220;52.214;0.116;2024-01-15T09:55:52;100878.49;;;14.54;24.94
55474;BME280;65220;52.214;0.116;2024-01-15T09:58:17;100877.85;;;13.99;25.00
55474;BME280;65220;52.214;0.116;2024-01-15T10:00:44;100874.72;;;14.44;24.87
55474;BME280;65220;52.214;0.116;2024-01-15T10:03:07;100880.13;;;13.90;25.08
55474;BME280;65220;52.214;0.116;2024-01-15T10:05:32;100883.03;;;13.67;25.09
55474;BME280;65220;52.214;0.116;2024-01-15T10:07:58;100889.65;;;14.41;24.87
55474;BME280;65220;52.214;0.116;2024-01-15T10:10:23;100883.29;;;13.85;25.05
55474;BME280;65220;52.214;0.116;2024-01-15T10:12:48;100889.47;;;13.93;25.04
55474;BME280;65220;52.214;0.116;2024-01-15T10:15:13;100891.15;;;13.99;25.05
55474;BME280;65220;52.214;0.116;2024-01-15T10:17:38;100895.63;;;14.20;24.95
55474;BME280;65220;52.214;0.116;2024-01-15T10:20:08;100899.87;;;14.59;24.77
55474;BME280;65220;52.214;0.116;2024-01-15T10:22:28;100897.53;;;14.58;24.79
55474;BME280;65220;52.214;0.116;2024-01-15T10:24:54;100899.18;;;13.64;25.03
55474;BME280;65220;52.214;0.116;2024-01-15T10:27:19;100902.66;;;13.95;24.96
55474;BME280;65220;52.214;0.116;2024-01-15T10:29:44;100907.25;;;13.98;24.96
55474;BME280;65220;52.214;0.116;2024-01-15T10:32:10;100912.53;;;14.05;24.97
55474;BME280;65220;52.214;0.116;2024-01-15T10:34:37;100909.78;;;13.78;25.01
55474;BME280;65220;52.214;0.116;2024-01-15T10:37:01;100914.36;;;13.50;25.03
55474;BME280;65220;52.214;0.116;2024-01-15T10:39:25;100919.86;;;14.68;24.53
55474;BME280;65220;52.214;0.116;2024-01-15T10:41:51;100917.85;;;14.22;24.64
55474;BME280;65220;52.214;0.116;2024-01-15T10:44:16;100923.78;;;14.27;24.74
55474;BME280;65220;52.214;0.116;2024-01-15T10:46:41;100922.74;;;13.86;24.97
55474;BME280;65220;52.214;0.116;2024-01-15T10:49:06;100922.77;;;13.59;25.06
55474;BME280;65220;52.214;0.116;2024-01-15T10:51:31;100923.98;;;14.30;24.71
55474;BME280;65220;52.214;0.116;2024-01-15T10:53:57;100924.64;;;13.09;25.25
55474;BME280;65220;52.214;0.116;2024-01-15T10:56:22;100923.32;;;13.66;25.10
55474;BME280;65220;52.214;0.116;2024-01-15T10:58:47;100915.44;;;13.58;24.98
55474;BME280;65220;52.214;0.116;2024-01-15T11:01:13;100928.92;;;13.41;25.14
55474;BME280;65220;52.214;0.116;2024-01-15T11:03:38;100926.15;;;13.27;25.09
55474;BME280;65220;52.214;0.116;2024-01-15T11:06:02;100924.80;;;13.50;25.02
55474;BME280;65220;52.214;0.116;2024-01-15T11:08:28;100922.88;;;13.82;24.71
55474;BME280;65220;52.214;0.116;2024-01-15T11:10:53;100923.62;;;14.18;24.59
55474;BME280;65220;52.214;0.116;2024-01-15T11:13:20;100925.17;;;14.27;24.59
55474;BME280;65220;52.214;0.116;2024-01-15T11:16:00;100926.91;;;13.14;25.01
55474;BME280;65220;52.214;0.116;2024-01-15T11:18:09;100930.04;;;13.50;24.91
55474;BME280;65220;52.214;0.116;2024-01-15T11:20:33;100932.85;;;13.17;24.92
55474;BME280;65220;52.214;0.116;2024-01-15T11:22:58;100935.00;;;13.71;24.72
55474;BME280;65220;52.214;0.116;2024-01-15T11:25:24;100938.67;;;13.38;24.81
55474;BME280;65220;52.214;0.116;2024-01-15T11:27:51;100937.29;;;13.54;24.76
55474;BME280;65220;52.214;0.116;2024-01-15T11:30:14;100938.29;;;13.83;24.66
55474;BME280;65220;52.214;0.116;2024-01-15T11:32:39;100937.29;;;14.30;24.51
55474;BME280;65220;52.214;0.116;2024-01-15T11:35:05;100940.09;;;14.22;24.47
55474;BME280;65220;52.214;0.116;2024-01-15T11:37:57;100945.28;;;14.74;24.23
55474;BME280;65220;52.214;0.116;2024-01-15T11:39:56;100947.22;;;14.56;24.25
55474;BME280;65220;52.214;0.116;2024-01-15T11:42:21;100951.95;;;15.21;24.03
55474;BME280;65220;52.214;0.116;2024-01-15T11:44:45;100949.38;;;14.67;24.18
55474;BME280;65220;52.214;0.116;2024-01-15T11:47:11;100943.37;;;15.31;23.96
55474;BME280;65220;52.214;0.116;2024-01-15T11:49:59;100946.01;;;14.41;24.15
55474;BME280;65220;52.214;0.116;2024-01-15T11:52:02;100939.85;;;14.93;24.07
55474;BME280;65220;52.214;0.116;2024-01-15T11:54:28;100945.39;;;15.12;23.97
55474;BME280;65220;52.214;0.116;2024-01-15T11:56:51;100948.48;;;15.47;23.75
55474;BME280;65220;52.214;0.116;2024-01-15T11:59:16;100950.51;;;14.99;23.90
55474;BME280;65220;52.214;0.116;2024-01-15T12:01:41;100955.91;;;15.38;23.88
55474;BME280;65220;52.214;0.116;2024-01-15T12:04:08;100954.18;;;14.92;23.97
55474;BME280;65220;52.214;0.116;2024-01-15T12:06:33;100957.00;;;15.39;23.75
55474;BME280;65220;52.214;0.116;2024-01-15T12:09:06;100953.59;;;15.46;23.78
55474;BME280;65220;52.214;0.116;2024-01-15T12:11:25;100952.62;;;15.22;23.81
55474;BME280;65220;52.214;0.116;2024-01-15T12:13:48;100953.75;;;15.65;23.69
55474;BME280;65220;52.214;0.116;2024-01-15T12:16:14;100955.75;;;15.63;23.69
55474;BME280;65220;52.214;0.116;2024-01-15T12:18:39;100956.14;;;15.15;23.87
55474;BME280;65220;52.214;0.116;2024-01-15T12:21:04;100952.27;;;15.09;23.86
55474;BME280;65220;52.214;0.116;2024-01-15T12:23:29;100953.61;;;15.48;23.72
55474;BME280;65220;52.214;0.116;2024-01-15T12:25:54;100953.25;;;15.45;23.68
55474;BME280;65220;52.214;0.116;2024-01-15T12:28:19;100950.42;;;15.20;23.76
55474;BME280;65220;52.214;0.116;2024-01-15T12:30:47;100955.02;;;16.04;23.60
55474;BME280;65220;52.214;0.116;2024-01-15T12:33:10;100959.60;;;15.98;23.73
55474;BME280;65220;52.214;0.116;2024-01-15T12:35:36;100961.28;;;15.55;23.72
55474;BME280;65220;52.214;0.116;2024-01-15T12:38:01;100966.33;;;15.64;23.68